createdAt,value
2024-05-09T00:00:02.896Z,8.06
2024-05-09T00:01:02.517Z,8.06
2024-05-09T00:02:02.509Z,8.02
2024-05-09T00:03:02.489Z,8.04
2024-05-09T00:04:02.559Z,8.05
2024-05-09T00:05:02.565Z,8.06
2024-05-09T00:06:02.560Z,8.02
2024-05-09T00:07:02.422Z,7.99
2024-05-09T00:08:02.528Z,8.04
2024-05-09T00:09:02.390Z,7.98
2024-05-09T00:10:03.198Z,7.94
2024-05-09T00:11:02.661Z,7.94
2024-05-09T00:12:02.572Z,7.87
2024-05-09T00:13:02.356Z,7.86
2024-05-09T00:14:02.363Z,7.81
2024-05-09T00:15:02.349Z,7.80
2024-05-09T00:16:02.326Z,7.81
2024-05-09T00:17:02.343Z,7.78
2024-05-09T00:18:02.657Z,7.77
2024-05-09T00:19:02.356Z,7.78
2024-05-09T00:20:02.622Z,7.78
2024-05-09T00:21:02.481Z,7.73
2024-05-09T00:22:02.257Z,7.73
2024-05-09T00:23:02.307Z,7.68
2024-05-09T00:24:02.231Z,7.62
2024-05-09T00:25:02.245Z,7.69
2024-05-09T00:26:02.280Z,7.68
2024-05-09T00:27:02.205Z,7.68
2024-05-09T00:28:02.196Z,7.66
2024-05-09T00:29:02.296Z,7.66
2024-05-09T00:30:04.125Z,7.68
2024-05-09T00:31:02.153Z,7.66
2024-05-09T00:32:02.287Z,7.62
2024-05-09T00:33:02.294Z,7.60
2024-05-09T00:34:02.275Z,7.61
2024-05-09T00:35:02.197Z,7.61
2024-05-09T00:36:02.122Z,7.55
2024-05-09T00:37:02.093Z,7.60
2024-05-09T00:38:02.439Z,7.57
2024-05-09T00:39:02.093Z,7.55
2024-05-09T00:40:02.116Z,7.49
2024-05-09T00:41:02.155Z,7.50
2024-05-09T00:42:02.050Z,7.50
2024-05-09T00:43:02.027Z,7.52
2024-05-09T00:44:02.097Z,7.50
2024-05-09T00:45:02.037Z,7.47
2024-05-09T00:46:02.138Z,7.52
2024-05-09T00:47:02.022Z,7.46
2024-05-09T00:48:02.212Z,7.46
2024-05-09T00:49:02.068Z,7.46
2024-05-09T00:50:02.076Z,7.44
2024-05-09T00:51:01.993Z,7.47
2024-05-09T00:52:01.951Z,7.44
2024-05-09T00:53:02.039Z,7.49
2024-05-09T00:54:01.929Z,7.50
2024-05-09T00:55:01.913Z,7.47
2024-05-09T00:56:01.945Z,7.50
2024-05-09T00:57:01.900Z,7.46
2024-05-09T00:58:01.886Z,7.39
2024-05-09T00:59:01.920Z,7.40
2024-05-09T01:00:01.871Z,7.40
2024-05-09T01:01:01.940Z,7.34
2024-05-09T01:02:01.924Z,7.33
2024-05-09T01:03:02.094Z,7.29
2024-05-09T01:04:01.984Z,7.37
2024-05-09T01:05:01.909Z,7.37
2024-05-09T01:06:01.842Z,7.36
2024-05-09T01:07:01.782Z,7.34
2024-05-09T01:08:01.881Z,7.36
2024-05-09T01:09:01.754Z,7.39
2024-05-09T01:10:01.777Z,7.46
2024-05-09T01:11:01.873Z,7.44
2024-05-09T01:12:01.794Z,7.43
2024-05-09T01:13:01.722Z,7.40
2024-05-09T01:14:01.824Z,7.39
2024-05-09T01:15:01.740Z,7.43
2024-05-09T01:16:01.707Z,7.39
2024-05-09T01:17:01.760Z,7.33
2024-05-09T01:18:02.163Z,7.34
2024-05-09T01:19:01.791Z,7.28
2024-05-09T01:20:01.756Z,7.26
2024-05-09T01:21:01.752Z,7.21
2024-05-09T01:22:01.626Z,7.18
2024-05-09T01:23:01.637Z,7.18
2024-05-09T01:24:01.633Z,7.10
2024-05-09T01:25:01.592Z,7.08
2024-05-09T01:26:01.649Z,7.08
2024-05-09T01:27:01.570Z,7.08
2024-05-09T01:28:01.584Z,7.06
2024-05-09T01:29:01.596Z,7.03
2024-05-09T01:30:01.559Z,7.03
2024-05-09T01:31:01.521Z,7.00
2024-05-09T01:32:01.657Z,6.99
2024-05-09T01:33:02.039Z,6.99
2024-05-09T01:34:01.565Z,6.99
2024-05-09T01:35:01.555Z,6.93
2024-05-09T01:36:01.477Z,6.96
2024-05-09T01:37:01.457Z,6.91
2024-05-09T01:38:01.524Z,6.91
2024-05-09T01:39:01.473Z,6.88
2024-05-09T01:40:01.435Z,6.86
2024-05-09T01:41:01.471Z,6.89
2024-05-09T01:42:01.436Z,6.86
2024-05-09T01:43:01.415Z,6.85
2024-05-09T01:44:01.437Z,6.85
2024-05-09T01:45:01.381Z,6.82
2024-05-09T01:46:01.375Z,6.83
2024-05-09T01:47:01.483Z,6.86
2024-05-09T01:48:02.218Z,6.82
2024-05-09T01:49:01.454Z,6.86
2024-05-09T01:50:01.526Z,6.82
2024-05-09T01:51:01.503Z,6.82
2024-05-09T01:52:01.328Z,6.79
2024-05-09T01:53:01.367Z,6.81
2024-05-09T01:54:01.317Z,6.82
2024-05-09T01:55:04.670Z,6.78
2024-05-09T01:56:01.312Z,6.82
2024-05-09T01:57:01.265Z,6.81
2024-05-09T01:58:01.326Z,6.75
2024-05-09T01:59:01.302Z,6.74
2024-05-09T02:00:01.243Z,6.74
2024-05-09T02:01:01.291Z,6.70
2024-05-09T02:02:01.482Z,6.70
2024-05-09T02:03:01.578Z,6.65
2024-05-09T02:04:01.473Z,6.65
2024-05-09T02:05:01.264Z,6.65
2024-05-09T02:06:01.346Z,6.56
2024-05-09T02:07:01.138Z,6.56
2024-05-09T02:08:01.292Z,6.53
2024-05-09T02:09:01.130Z,6.52
2024-05-09T02:10:01.123Z,6.50
2024-05-09T02:11:01.303Z,6.49
2024-05-09T02:12:01.326Z,6.49
2024-05-09T02:13:01.197Z,6.53
2024-05-09T02:14:01.159Z,6.49
2024-05-09T02:15:01.080Z,6.47
2024-05-09T02:16:01.070Z,6.49
2024-05-09T02:17:01.091Z,6.49
2024-05-09T02:18:01.255Z,6.47
2024-05-09T02:19:01.094Z,6.46
2024-05-09T02:20:01.122Z,6.43
2024-05-09T02:21:01.139Z,6.47
2024-05-09T02:22:00.995Z,6.52
2024-05-09T02:23:01.008Z,6.43
2024-05-09T02:24:01.016Z,6.40
2024-05-09T02:25:00.999Z,6.38
2024-05-09T02:26:00.966Z,6.43
2024-05-09T02:27:00.942Z,6.42
2024-05-09T02:28:00.964Z,6.40
2024-05-09T02:29:00.966Z,6.40
2024-05-09T02:30:00.911Z,6.42
2024-05-09T02:31:00.895Z,6.42
2024-05-09T02:32:00.983Z,6.45
2024-05-09T02:33:01.120Z,6.43
2024-05-09T02:34:01.166Z,6.42
2024-05-09T02:35:00.927Z,6.45
2024-05-09T02:36:00.854Z,6.38
2024-05-09T02:37:00.838Z,6.37
2024-05-09T02:38:01.085Z,6.34
2024-05-09T02:39:00.832Z,6.37
2024-05-09T02:40:00.805Z,6.35
2024-05-09T02:41:00.847Z,6.32
2024-05-09T02:42:00.790Z,6.32
2024-05-09T02:43:00.787Z,6.32
2024-05-09T02:44:00.828Z,6.35
2024-05-09T02:45:00.748Z,6.34
2024-05-09T02:46:00.754Z,6.31
2024-05-09T02:47:00.768Z,6.31
2024-05-09T02:48:01.496Z,6.37
2024-05-09T02:49:00.776Z,6.34
2024-05-09T02:50:00.733Z,6.37
2024-05-09T02:51:00.819Z,6.32
2024-05-09T02:52:00.697Z,6.31
2024-05-09T02:53:00.754Z,6.35
2024-05-09T02:54:00.672Z,6.30
2024-05-09T02:55:00.637Z,6.28
2024-05-09T02:56:00.758Z,6.32
2024-05-09T02:57:00.640Z,6.28
2024-05-09T02:58:00.617Z,6.30
2024-05-09T02:59:00.687Z,6.28
2024-05-09T03:00:00.688Z,6.27
2024-05-09T03:01:00.543Z,6.28
2024-05-09T03:02:00.753Z,6.25
2024-05-09T03:03:00.703Z,6.27
2024-05-09T03:04:00.623Z,6.27
2024-05-09T03:05:00.547Z,6.21
2024-05-09T03:06:00.492Z,6.19
2024-05-09T03:07:00.553Z,6.19
2024-05-09T03:08:00.519Z,6.25
2024-05-09T03:09:00.454Z,6.25
2024-05-09T03:10:00.435Z,6.30
2024-05-09T03:11:00.588Z,6.28
2024-05-09T03:12:00.499Z,6.30
2024-05-09T03:13:00.414Z,6.30
2024-05-09T03:14:00.421Z,6.24
2024-05-09T03:15:00.427Z,6.27
2024-05-09T03:16:00.414Z,6.24
2024-05-09T03:17:00.392Z,6.16
2024-05-09T03:18:00.619Z,6.19
2024-05-09T03:19:00.438Z,6.12
2024-05-09T03:20:00.399Z,6.13
2024-05-09T03:21:00.383Z,6.12
2024-05-09T03:22:00.312Z,6.15
2024-05-09T03:23:00.334Z,6.16
2024-05-09T03:24:00.306Z,6.12
2024-05-09T03:25:00.321Z,6.12
2024-05-09T03:26:00.323Z,6.12
2024-05-09T03:27:00.269Z,6.09
2024-05-09T03:28:00.276Z,6.02
2024-05-09T03:29:00.281Z,6.08
2024-05-09T03:30:00.282Z,6.00
2024-05-09T03:31:00.235Z,6.00
2024-05-09T03:32:00.304Z,6.03
2024-05-09T03:33:00.476Z,5.98
2024-05-09T03:34:00.384Z,6.00
2024-05-09T03:35:00.280Z,5.98
2024-05-09T03:36:00.169Z,5.97
2024-05-09T03:37:00.173Z,5.98
2024-05-09T03:38:00.233Z,5.98
2024-05-09T03:39:00.158Z,5.97
2024-05-09T03:40:00.207Z,5.98
2024-05-09T03:41:00.123Z,6.00
2024-05-09T03:42:00.109Z,5.94
2024-05-09T03:43:00.110Z,5.95
2024-05-09T03:44:00.140Z,5.88
2024-05-09T03:45:00.129Z,5.93
2024-05-09T03:46:00.076Z,5.87
2024-05-09T03:47:00.092Z,5.88
2024-05-09T03:48:00.199Z,5.87
2024-05-09T03:49:00.087Z,5.82
2024-05-09T03:50:00.049Z,5.82
2024-05-09T03:51:00.131Z,5.77
2024-05-09T03:52:00.002Z,5.79
2024-05-09T03:53:00.288Z,5.80
2024-05-09T03:53:59.981Z,5.77
2024-05-09T03:54:59.975Z,5.77
2024-05-09T03:56:00.038Z,5.79
2024-05-09T03:56:59.986Z,5.77
2024-05-09T03:58:00.060Z,5.84
2024-05-09T03:58:59.981Z,5.85
2024-05-09T03:59:59.915Z,5.80
2024-05-09T04:00:59.958Z,5.82
2024-05-09T04:02:00.039Z,5.79
2024-05-09T04:03:00.073Z,5.76
2024-05-09T04:03:59.913Z,5.82
2024-05-09T04:04:59.900Z,5.79
2024-05-09T04:05:59.854Z,5.85
2024-05-09T04:06:59.863Z,5.77
2024-05-09T04:07:59.903Z,5.84
2024-05-09T04:08:59.834Z,5.77
2024-05-09T04:09:59.813Z,5.85
2024-05-09T04:10:59.888Z,5.85
2024-05-09T04:11:59.878Z,5.87
2024-05-09T04:12:59.792Z,5.88
2024-05-09T04:13:59.798Z,5.85
2024-05-09T04:14:59.762Z,5.88
2024-05-09T04:15:59.781Z,5.90
2024-05-09T04:16:59.796Z,5.88
2024-05-09T04:18:00.337Z,5.87
2024-05-09T04:18:59.766Z,5.88
2024-05-09T04:19:59.719Z,5.91
2024-05-09T04:20:59.789Z,5.98
2024-05-09T04:21:59.688Z,5.93
2024-05-09T04:22:59.731Z,5.91
2024-05-09T04:23:59.677Z,5.91
2024-05-09T04:24:59.671Z,5.94
2024-05-09T04:25:59.669Z,5.95
2024-05-09T04:26:59.695Z,5.97
2024-05-09T04:27:59.624Z,5.97
2024-05-09T04:28:59.683Z,5.97
2024-05-09T04:29:59.622Z,5.97
2024-05-09T04:30:59.609Z,5.98
2024-05-09T04:31:59.710Z,6.00
2024-05-09T04:32:59.713Z,6.03
2024-05-09T04:33:59.697Z,6.00
2024-05-09T04:34:59.607Z,6.03
2024-05-09T04:35:59.595Z,6.05
2024-05-09T04:36:59.538Z,6.05
2024-05-09T04:37:59.632Z,6.11
2024-05-09T04:38:59.895Z,6.08
2024-05-09T04:39:59.618Z,6.08
2024-05-09T04:40:59.565Z,6.08
2024-05-09T04:41:59.476Z,6.11
2024-05-09T04:42:59.472Z,6.13
2024-05-09T04:43:59.491Z,6.13
2024-05-09T04:44:59.451Z,6.12
2024-05-09T04:45:59.438Z,6.16
2024-05-09T04:46:59.468Z,6.19
2024-05-09T04:47:59.892Z,6.19
2024-05-09T04:48:59.475Z,6.24
2024-05-09T04:49:59.405Z,6.30
2024-05-09T04:50:59.505Z,6.34
2024-05-09T04:51:59.377Z,6.31
2024-05-09T04:52:59.451Z,6.32
2024-05-09T04:53:59.365Z,6.34
2024-05-09T04:54:59.348Z,6.42
2024-05-09T04:55:59.373Z,6.40
2024-05-09T04:56:59.337Z,6.43
2024-05-09T04:57:59.347Z,6.46
2024-05-09T04:58:59.376Z,6.55
2024-05-09T04:59:59.294Z,6.55
2024-05-09T05:00:59.324Z,6.55
2024-05-09T05:01:59.319Z,6.61
2024-05-09T05:02:59.693Z,6.61
2024-05-09T05:03:59.453Z,6.64
2024-05-09T05:04:59.361Z,6.65
2024-05-09T05:05:59.441Z,6.68
2024-05-09T05:07:02.094Z,6.71
2024-05-09T05:07:59.272Z,6.73
2024-05-09T05:08:59.203Z,6.74
2024-05-09T05:09:59.224Z,6.73
2024-05-09T05:10:59.269Z,6.78
2024-05-09T05:11:59.250Z,6.81
2024-05-09T05:12:59.164Z,6.85
2024-05-09T05:13:59.171Z,6.89
2024-05-09T05:14:59.155Z,6.88
2024-05-09T05:15:59.123Z,6.88
2024-05-09T05:16:59.202Z,6.92
2024-05-09T05:17:59.241Z,7.00
2024-05-09T05:18:59.177Z,7.04
2024-05-09T05:19:59.153Z,7.04
2024-05-09T05:20:59.273Z,7.10
2024-05-09T05:21:59.082Z,7.16
2024-05-09T05:22:59.121Z,7.22
2024-05-09T05:23:59.043Z,7.25
2024-05-09T05:24:59.040Z,7.29
2024-05-09T05:25:59.093Z,7.36
2024-05-09T05:26:59.023Z,7.40
2024-05-09T05:27:59.001Z,7.47
2024-05-09T05:28:59.014Z,7.54
2024-05-09T05:29:58.978Z,7.50
2024-05-09T05:30:58.987Z,7.58
2024-05-09T05:31:59.058Z,7.62
2024-05-09T05:32:59.004Z,7.71
2024-05-09T05:33:59.102Z,7.69
2024-05-09T05:34:58.967Z,7.71
2024-05-09T05:35:58.932Z,7.81
2024-05-09T05:36:58.933Z,7.83
2024-05-09T05:37:58.953Z,7.92
2024-05-09T05:38:58.916Z,7.95
2024-05-09T05:39:58.885Z,7.98
2024-05-09T05:40:58.924Z,8.04
2024-05-09T05:41:58.857Z,8.12
2024-05-09T05:42:58.848Z,8.10
2024-05-09T05:43:58.863Z,8.14
2024-05-09T05:44:58.844Z,8.19
2024-05-09T05:45:58.818Z,8.19
2024-05-09T05:46:58.835Z,8.26
2024-05-09T05:47:58.985Z,8.34
2024-05-09T05:48:58.961Z,8.39
2024-05-09T05:49:58.825Z,8.46
2024-05-09T05:51:01.135Z,8.57
2024-05-09T05:51:58.752Z,8.60
2024-05-09T05:52:58.764Z,8.67
2024-05-09T05:53:58.751Z,8.72
2024-05-09T05:54:58.752Z,8.74
2024-05-09T05:55:58.737Z,8.80
2024-05-09T05:56:58.724Z,8.89
2024-05-09T05:57:58.687Z,8.89
2024-05-09T05:58:58.729Z,8.93
2024-05-09T05:59:58.664Z,8.95
2024-05-09T06:00:58.739Z,9.01
2024-05-09T06:01:58.665Z,9.12
2024-05-09T06:02:58.783Z,9.18
2024-05-09T06:03:58.755Z,9.18
2024-05-09T06:04:58.705Z,9.24
2024-05-09T06:05:58.645Z,9.27
2024-05-09T06:06:58.597Z,9.29
2024-05-09T06:07:58.663Z,9.44
2024-05-09T06:08:58.601Z,9.51
2024-05-09T06:09:58.556Z,9.54
2024-05-09T06:10:58.658Z,9.57
2024-05-09T06:11:58.605Z,9.63
2024-05-09T06:12:58.547Z,9.62
2024-05-09T06:13:58.564Z,9.67
2024-05-09T06:14:58.511Z,9.66
2024-05-09T06:15:58.506Z,9.77
2024-05-09T06:16:58.560Z,9.84
2024-05-09T06:17:59.026Z,9.93
2024-05-09T06:18:58.542Z,10.02
2024-05-09T06:19:58.479Z,10.06
2024-05-09T06:20:58.471Z,10.09
2024-05-09T06:21:58.447Z,10.12
2024-05-09T06:22:58.457Z,10.17
2024-05-09T06:23:58.424Z,10.23
2024-05-09T06:24:58.406Z,10.31
2024-05-09T06:25:58.458Z,10.35
2024-05-09T06:26:58.600Z,10.52
2024-05-09T06:27:58.376Z,10.68
2024-05-09T06:28:58.416Z,10.78
2024-05-09T06:29:58.348Z,10.91
2024-05-09T06:30:58.360Z,11.09
2024-05-09T06:32:00.309Z,11.59
2024-05-09T06:32:58.474Z,12.25
2024-05-09T06:33:58.439Z,12.79
2024-05-09T06:34:58.357Z,13.21
2024-05-09T06:35:58.309Z,13.72
2024-05-09T06:36:58.291Z,14.03
2024-05-09T06:37:58.314Z,14.46
2024-05-09T06:38:58.286Z,15.08
2024-05-09T06:39:58.248Z,15.59
2024-05-09T06:40:58.340Z,15.93
2024-05-09T06:41:58.230Z,16.22
2024-05-09T06:42:58.225Z,16.67
2024-05-09T06:43:58.262Z,17.17
2024-05-09T06:44:58.243Z,17.57
2024-05-09T06:45:58.200Z,17.97
2024-05-09T06:46:59.726Z,18.36
2024-05-09T06:47:58.402Z,18.15
2024-05-09T06:48:58.391Z,18.06
2024-05-09T06:49:58.203Z,18.34
2024-05-09T06:50:58.151Z,18.79
2024-05-09T06:51:58.117Z,19.27
2024-05-09T06:52:58.182Z,18.89
2024-05-09T06:53:58.107Z,19.00
2024-05-09T06:54:58.117Z,19.22
2024-05-09T06:55:58.159Z,19.59
2024-05-09T06:56:58.072Z,19.64
2024-05-09T06:57:58.058Z,19.94
2024-05-09T06:58:58.117Z,20.18
2024-05-09T06:59:58.056Z,20.25
2024-05-09T07:00:58.115Z,20.41
2024-05-09T07:01:58.035Z,20.73
2024-05-09T07:02:59.698Z,20.86
2024-05-09T07:03:58.109Z,21.00
2024-05-09T07:04:58.058Z,21.28
2024-05-09T07:05:58.055Z,21.51
2024-05-09T07:06:57.969Z,21.77
2024-05-09T07:07:57.956Z,21.35
2024-05-09T07:08:57.957Z,21.20
2024-05-09T07:09:57.927Z,20.79
2024-05-09T07:10:58.027Z,20.71
2024-05-09T07:11:58.049Z,20.83
2024-05-09T07:12:57.913Z,21.19
2024-05-09T07:13:57.973Z,21.45
2024-05-09T07:14:57.881Z,21.56
2024-05-09T07:15:57.876Z,21.45
2024-05-09T07:16:58.013Z,21.59
2024-05-09T07:17:58.002Z,21.63
2024-05-09T07:18:58.010Z,21.74
2024-05-09T07:19:57.901Z,21.73
2024-05-09T07:20:57.978Z,21.35
2024-05-09T07:21:57.808Z,21.35
2024-05-09T07:22:57.820Z,21.41
2024-05-09T07:23:57.806Z,21.51
2024-05-09T07:24:57.769Z,21.75
2024-05-09T07:25:57.790Z,22.09
2024-05-09T07:26:57.784Z,22.44
2024-05-09T07:27:57.760Z,22.40
2024-05-09T07:28:57.730Z,22.27
2024-05-09T07:29:57.725Z,22.44
2024-05-09T07:30:57.704Z,22.41
2024-05-09T07:31:57.778Z,22.18
2024-05-09T07:32:57.957Z,22.04
2024-05-09T07:33:57.763Z,21.93
2024-05-09T07:34:57.689Z,21.91
2024-05-09T07:35:57.681Z,22.01
2024-05-09T07:36:57.657Z,21.78
2024-05-09T07:37:57.708Z,21.80
2024-05-09T07:38:57.629Z,22.13
2024-05-09T07:39:57.644Z,22.44
2024-05-09T07:40:57.707Z,22.51
2024-05-09T07:41:57.615Z,22.44
2024-05-09T07:42:57.589Z,22.61
2024-05-09T07:43:57.641Z,22.71
2024-05-09T07:45:11.233Z,22.81
2024-05-09T07:46:00.953Z,22.53
2024-05-09T07:49:44.288Z,21.91
2024-05-09T07:53:14.177Z,21.80
2024-05-09T07:53:46.064Z,21.63
2024-05-09T07:53:57.150Z,22.56
2024-05-09T07:54:52.984Z,22.73
2024-05-09T07:55:53.068Z,22.80
2024-05-09T07:56:53.148Z,22.92
2024-05-09T07:57:52.772Z,22.99
2024-05-09T07:58:52.924Z,22.91
2024-05-09T07:59:52.710Z,23.03
2024-05-09T08:00:52.885Z,23.14
2024-05-09T08:01:52.891Z,23.29
2024-05-09T08:02:52.789Z,23.45
2024-05-09T08:03:53.032Z,23.81
2024-05-09T08:04:52.731Z,24.13
2024-05-09T08:05:52.741Z,24.62
2024-05-09T08:06:52.775Z,24.86
2024-05-09T08:07:52.608Z,24.76
2024-05-09T08:08:52.654Z,25.06
2024-05-09T08:09:52.722Z,25.18
2024-05-09T08:10:52.705Z,25.26
2024-05-09T08:11:52.801Z,25.04
2024-05-09T08:12:52.662Z,24.26
2024-05-09T08:13:52.663Z,23.64
2024-05-09T08:14:52.566Z,23.45
2024-05-09T08:15:52.923Z,22.89
2024-05-09T08:16:52.616Z,22.71
2024-05-09T08:17:52.735Z,22.83
2024-05-09T08:18:52.686Z,22.99
2024-05-09T08:19:52.589Z,22.85
2024-05-09T08:20:52.522Z,23.23
2024-05-09T08:21:52.522Z,23.45
2024-05-09T08:22:52.526Z,23.85
2024-05-09T08:23:52.519Z,24.18
2024-05-09T08:24:52.607Z,24.52
2024-05-09T08:25:52.443Z,24.82
2024-05-09T08:26:52.456Z,25.03
2024-05-09T08:27:52.595Z,25.43
2024-05-09T08:28:52.404Z,25.68
2024-05-09T08:29:52.450Z,25.55
2024-05-09T08:30:52.495Z,25.19
2024-05-09T08:31:52.400Z,24.96
2024-05-09T08:32:52.470Z,25.00
2024-05-09T08:33:52.599Z,24.89
2024-05-09T08:34:52.526Z,24.97
2024-05-09T08:35:52.323Z,25.12
2024-05-09T08:36:52.383Z,25.23
2024-05-09T08:37:52.390Z,25.31
2024-05-09T08:38:52.295Z,25.53
2024-05-09T08:39:52.373Z,25.95
2024-05-09T08:40:52.316Z,25.93
2024-05-09T08:41:52.278Z,26.03
2024-05-09T08:42:52.605Z,26.10
2024-05-09T08:43:52.252Z,26.00
2024-05-09T08:44:52.238Z,25.37
2024-05-09T08:45:52.953Z,24.97
2024-05-09T08:46:52.225Z,24.56
2024-05-09T08:47:52.347Z,24.19
2024-05-09T08:48:52.343Z,23.82
2024-05-09T08:49:52.259Z,23.98
2024-05-09T08:50:52.284Z,24.23
2024-05-09T08:51:52.205Z,24.29
2024-05-09T08:52:52.174Z,23.98
2024-05-09T08:53:52.142Z,23.69
2024-05-09T08:54:52.190Z,23.82
2024-05-09T08:55:52.142Z,23.81
2024-05-09T08:56:52.144Z,23.63
2024-05-09T08:57:52.306Z,23.84
2024-05-09T08:58:52.095Z,24.21
2024-05-09T08:59:52.088Z,24.62
2024-05-09T09:00:52.217Z,25.06
2024-05-09T09:01:52.134Z,25.27
2024-05-09T09:02:52.078Z,25.33
2024-05-09T09:03:52.187Z,24.96
2024-05-09T09:04:52.152Z,25.08
2024-05-09T09:05:52.129Z,24.44
2024-05-09T09:06:53.248Z,24.08
2024-05-09T09:07:52.003Z,23.60
2024-05-09T09:08:51.989Z,23.26
2024-05-09T09:09:52.018Z,23.04
2024-05-09T09:10:52.023Z,23.36
2024-05-09T09:11:51.995Z,23.59
2024-05-09T09:12:52.043Z,23.54
2024-05-09T09:13:51.937Z,23.64
2024-05-09T09:14:51.937Z,23.85
2024-05-09T09:15:52.037Z,23.94
2024-05-09T09:16:51.912Z,24.18
2024-05-09T09:17:51.974Z,24.13
2024-05-09T09:18:52.130Z,24.06
2024-05-09T09:19:51.966Z,24.01
2024-05-09T09:20:51.852Z,23.86
2024-05-09T09:21:51.984Z,23.66
2024-05-09T09:22:51.853Z,23.28
2024-05-09T09:23:51.848Z,22.89
2024-05-09T09:24:51.940Z,22.46
2024-05-09T09:25:51.823Z,22.36
2024-05-09T09:26:51.807Z,22.22
2024-05-09T09:27:51.821Z,21.94
2024-05-09T09:28:51.813Z,21.50
2024-05-09T09:29:51.774Z,21.30
2024-05-09T09:30:51.849Z,21.23
2024-05-09T09:31:51.739Z,21.10
2024-05-09T09:32:51.852Z,21.20
2024-05-09T09:33:51.955Z,21.25
2024-05-09T09:34:51.864Z,21.43
2024-05-09T09:35:51.714Z,21.20
2024-05-09T09:36:51.708Z,21.01
2024-05-09T09:37:51.702Z,20.95
2024-05-09T09:38:51.697Z,20.93
2024-05-09T09:39:51.653Z,21.04
2024-05-09T09:40:51.687Z,21.16
2024-05-09T09:41:51.644Z,21.51
2024-05-09T09:42:51.810Z,21.77
2024-05-09T09:43:51.635Z,21.88
2024-05-09T09:45:01.834Z,22.07
2024-05-09T09:45:52.186Z,22.19
2024-05-09T09:46:51.662Z,22.21
2024-05-09T09:47:51.762Z,22.13
2024-05-09T09:48:51.748Z,21.84
2024-05-09T09:49:51.629Z,21.96
2024-05-09T09:50:51.565Z,21.78
2024-05-09T09:51:51.673Z,21.85
2024-05-09T09:52:51.527Z,21.90
2024-05-09T09:53:51.511Z,22.06
2024-05-09T09:54:51.522Z,22.07
2024-05-09T09:55:51.507Z,22.13
2024-05-09T09:56:51.521Z,22.11
2024-05-09T09:57:51.533Z,21.88
2024-05-09T09:58:51.463Z,21.77
2024-05-09T09:59:51.438Z,21.35
2024-05-09T10:00:51.601Z,20.97
2024-05-09T10:01:51.557Z,20.63
2024-05-09T10:02:51.454Z,20.50
2024-05-09T10:03:51.664Z,20.58
2024-05-09T10:04:51.481Z,20.49
2024-05-09T10:05:51.461Z,20.44
2024-05-09T10:06:51.494Z,20.39
2024-05-09T10:07:51.374Z,20.70
2024-05-09T10:08:51.356Z,21.19
2024-05-09T10:09:51.426Z,21.53
2024-05-09T10:10:51.473Z,21.69
2024-05-09T10:11:52.438Z,21.85
2024-05-09T10:12:51.352Z,22.16
2024-05-09T10:13:51.308Z,22.34
2024-05-09T10:14:51.303Z,22.30
2024-05-09T10:15:51.643Z,22.28
2024-05-09T10:16:51.289Z,22.11
2024-05-09T10:17:51.381Z,22.06
2024-05-09T10:18:51.435Z,22.19
2024-05-09T10:19:51.417Z,22.22
2024-05-09T10:20:51.266Z,22.16
2024-05-09T10:21:51.301Z,22.23
2024-05-09T10:22:51.229Z,22.11
2024-05-09T10:23:51.221Z,22.15
2024-05-09T10:24:51.295Z,22.19
2024-05-09T10:25:51.178Z,22.25
2024-05-09T10:26:51.180Z,22.23
2024-05-09T10:27:51.198Z,22.31
2024-05-09T10:28:51.234Z,22.41
2024-05-09T10:29:51.167Z,22.51
2024-05-09T10:30:51.169Z,22.64
2024-05-09T10:31:51.191Z,22.68
2024-05-09T10:32:51.257Z,22.52
2024-05-09T10:33:52.321Z,22.15
2024-05-09T10:34:51.098Z,22.12
2024-05-09T10:35:51.065Z,22.11
2024-05-09T10:36:51.127Z,22.28
2024-05-09T10:37:51.076Z,22.31
2024-05-09T10:38:51.065Z,22.25
2024-05-09T10:39:51.076Z,21.98
2024-05-09T10:40:51.035Z,21.58
2024-05-09T10:41:51.006Z,21.34
2024-05-09T10:42:51.076Z,21.22
2024-05-09T10:43:51.077Z,21.26
2024-05-09T10:44:50.977Z,21.55
2024-05-09T10:45:51.036Z,21.82
2024-05-09T10:46:50.976Z,21.91
2024-05-09T10:47:51.484Z,21.77
2024-05-09T10:48:51.046Z,21.53
2024-05-09T10:49:51.146Z,21.44
2024-05-09T10:50:50.915Z,21.67
2024-05-09T10:51:51.004Z,22.01
2024-05-09T10:52:51.226Z,22.41
2024-05-09T10:53:50.870Z,22.53
2024-05-09T10:54:50.922Z,22.64
2024-05-09T10:55:50.858Z,22.62
2024-05-09T10:56:50.875Z,22.70
2024-05-09T10:57:50.873Z,22.70
2024-05-09T10:58:50.841Z,22.86
2024-05-09T10:59:50.820Z,23.07
2024-05-09T11:00:50.899Z,23.15
2024-05-09T11:01:51.021Z,23.26
2024-05-09T11:02:50.835Z,23.33
2024-05-09T11:03:51.091Z,23.51
2024-05-09T11:04:50.851Z,23.56
2024-05-09T11:05:50.908Z,23.82
2024-05-09T11:06:50.789Z,24.01
2024-05-09T11:07:50.733Z,24.38
2024-05-09T11:08:50.740Z,24.66
2024-05-09T11:09:50.762Z,24.66
2024-05-09T11:10:51.058Z,24.41
2024-05-09T11:11:51.129Z,24.53
2024-05-09T11:12:50.732Z,24.66
2024-05-09T11:13:50.691Z,24.63
2024-05-09T11:14:50.677Z,24.29
2024-05-09T11:15:50.699Z,24.08
2024-05-09T11:16:50.698Z,23.63
2024-05-09T11:17:50.794Z,22.95
2024-05-09T11:18:50.819Z,22.49
2024-05-09T11:19:50.654Z,21.88
2024-05-09T11:20:50.707Z,21.48
2024-05-09T11:21:50.634Z,21.34
2024-05-09T11:22:50.599Z,20.93
2024-05-09T11:23:50.568Z,20.83
2024-05-09T11:24:50.633Z,20.75
2024-05-09T11:25:50.585Z,20.65
2024-05-09T11:26:50.572Z,20.44
2024-05-09T11:27:50.579Z,20.23
2024-05-09T11:28:50.877Z,20.37
2024-05-09T11:29:50.528Z,20.41
2024-05-09T11:30:50.588Z,20.60
2024-05-09T11:31:50.559Z,20.89
2024-05-09T11:32:50.610Z,21.60
2024-05-09T11:33:50.599Z,22.22
2024-05-09T11:34:52.648Z,22.73
2024-05-09T11:35:50.461Z,23.15
2024-05-09T11:36:50.476Z,23.37
2024-05-09T11:37:50.424Z,23.64
2024-05-09T11:38:50.439Z,23.84
2024-05-09T11:39:50.797Z,23.71
2024-05-09T11:40:50.449Z,23.52
2024-05-09T11:41:50.390Z,23.44
2024-05-09T11:42:53.013Z,23.56
2024-05-09T11:43:50.379Z,23.51
2024-05-09T11:44:50.365Z,23.39
2024-05-09T11:45:50.402Z,23.64
2024-05-09T11:46:50.329Z,23.52
2024-05-09T11:47:50.399Z,23.15
2024-05-09T11:48:50.498Z,23.28
2024-05-09T11:49:50.326Z,23.18
2024-05-09T11:50:50.292Z,23.17
2024-05-09T11:51:50.299Z,23.39
2024-05-09T11:52:50.280Z,23.59
2024-05-09T11:53:50.283Z,23.74
2024-05-09T11:54:50.285Z,23.81
2024-05-09T11:55:50.243Z,23.74
2024-05-09T11:56:50.225Z,24.07
2024-05-09T11:57:50.285Z,24.33
2024-05-09T11:58:50.212Z,24.38
2024-05-09T11:59:50.202Z,23.96
2024-05-09T12:00:50.414Z,23.82
2024-05-09T12:01:50.392Z,23.63
2024-05-09T12:02:50.222Z,23.60
2024-05-09T12:03:50.384Z,23.91
2024-05-09T12:04:50.236Z,24.21
2024-05-09T12:05:50.247Z,24.38
2024-05-09T12:06:50.187Z,24.47
2024-05-09T12:07:50.135Z,24.47
2024-05-09T12:08:50.097Z,24.71
2024-05-09T12:09:50.138Z,24.78
2024-05-09T12:10:50.343Z,24.62
2024-05-09T12:11:50.192Z,24.08
2024-05-09T12:12:50.152Z,23.54
2024-05-09T12:13:50.052Z,22.91
2024-05-09T12:14:50.046Z,22.28
2024-05-09T12:15:50.076Z,21.66
2024-05-09T12:16:50.086Z,21.38
2024-05-09T12:17:50.847Z,21.14
2024-05-09T12:18:50.152Z,20.98
2024-05-09T12:19:49.986Z,20.85
2024-05-09T12:20:50.008Z,20.79
2024-05-09T12:21:50.028Z,20.63
2024-05-09T12:22:49.954Z,20.55
2024-05-09T12:23:49.957Z,20.53
2024-05-09T12:24:49.967Z,20.39
2024-05-09T12:25:49.951Z,20.19
2024-05-09T12:26:49.909Z,20.14
2024-05-09T12:27:49.974Z,20.12
2024-05-09T12:28:49.894Z,20.60
2024-05-09T12:29:49.892Z,21.04
2024-05-09T12:30:49.938Z,21.45
2024-05-09T12:31:49.933Z,21.74
2024-05-09T12:32:50.085Z,22.06
2024-05-09T12:33:49.988Z,22.43
2024-05-09T12:34:49.864Z,22.96
2024-05-09T12:35:51.116Z,23.13
2024-05-09T12:36:49.898Z,23.46
2024-05-09T12:37:49.800Z,23.82
2024-05-09T12:38:49.790Z,23.92
2024-05-09T12:39:49.852Z,24.01
2024-05-09T12:40:49.798Z,24.04
2024-05-09T12:41:49.755Z,24.19
2024-05-09T12:42:49.847Z,24.38
2024-05-09T12:43:49.735Z,24.48
2024-05-09T12:44:49.750Z,24.11
2024-05-09T12:45:49.774Z,24.01
2024-05-09T12:46:49.701Z,24.47
2024-05-09T12:47:49.955Z,24.43
2024-05-09T12:48:49.923Z,24.18
2024-05-09T12:49:49.738Z,24.31
2024-05-09T12:50:49.812Z,24.26
2024-05-09T12:51:49.827Z,24.43
2024-05-09T12:52:49.650Z,24.33
2024-05-09T12:53:49.664Z,24.22
2024-05-09T12:54:49.676Z,23.88
2024-05-09T12:55:56.664Z,23.49
2024-05-09T12:56:49.607Z,23.17
2024-05-09T12:57:49.640Z,22.96
2024-05-09T12:58:49.621Z,22.80
2024-05-09T12:59:49.571Z,22.51
2024-05-09T13:00:49.785Z,22.61
2024-05-09T13:01:49.634Z,22.99
2024-05-09T13:02:49.584Z,23.51
2024-05-09T13:03:49.851Z,23.60
2024-05-09T13:04:49.602Z,23.70
2024-05-09T13:05:49.675Z,23.82
2024-05-09T13:06:49.642Z,23.84
2024-05-09T13:07:49.507Z,23.70